sensor_id;sensor_type;location;lat;lon;timestamp;temperature;humidity
20422;DHT22;10370;53.102;18.034;2023-04-24T00:00:33;12.70;99.90
20422;DHT22;10370;53.102;18.034;2023-04-24T00:05:59;12.70;99.90
20422;DHT22;10370;53.102;18.034;2023-04-24T00:11:25;12.70;99.90
20422;DHT22;10370;53.102;18.034;2023-04-24T00:16:50;12.70;99.90
20422;DHT22;10370;53.102;18.034;2023-04-24T00:22:13;12.70;99.90
20422;DHT22;10370;53.102;18.034;2023-04-24T00:27:39;12.60;99.90
20422;DHT22;10370;53.102;18.034;2023-04-24T00:33:04;12.70;99.90
20422;DHT22;10370;53.102;18.034;2023-04-24T00:38:30;12.60;99.90
20422;DHT22;10370;53.102;18.034;2023-04-24T00:43:57;12.60;99.90
20422;DHT22;10370;53.102;18.034;2023-04-24T00:49:21;12.60;99.90
20422;DHT22;10370;53.102;18.034;2023-04-24T00:54:46;12.60;99.90
20422;DHT22;10370;53.102;18.034;2023-04-24T01:00:09;12.60;99.90
20422;DHT22;10370;53.102;18.034;2023-04-24T01:05:36;12.60;99.90
20422;DHT22;10370;53.102;18.034;2023-04-24T01:11:00;12.50;99.90
20422;DHT22;10370;53.102;18.034;2023-04-24T01:16:28;12.50;99.90
20422;DHT22;10370;53.102;18.034;2023-04-24T01:21:53;12.40;99.90
20422;DHT22;10370;53.102;18.034;2023-04-24T01:27:17;12.40;99.90
20422;DHT22;10370;53.102;18.034;2023-04-24T01:32:43;12.40;99.90
20422;DHT22;10370;53.102;18.034;2023-04-24T01:38:07;12.40;99.90
20422;DHT22;10370;53.102;18.034;2023-04-24T01:43:33;12.40;99.90
20422;DHT22;10370;53.102;18.034;2023-04-24T01:48:59;12.40;99.90
20422;DHT22;10370;53.102;18.034;2023-04-24T01:54:24;12.40;99.90
20422;DHT22;10370;53.102;18.034;2023-04-24T01:59:50;12.40;99.90
20422;DHT22;10370;53.102;18.034;2023-04-24T02:05:16;12.40;99.90
20422;DHT22;10370;53.102;18.034;2023-04-24T02:10:39;12.50;99.90
20422;DHT22;10370;53.102;18.034;2023-04-24T02:16:09;12.40;99.90
20422;DHT22;10370;53.102;18.034;2023-04-24T02:21:35;12.40;99.90
20422;DHT22;10370;53.102;18.034;2023-04-24T02:27:01;12.30;99.90
20422;DHT22;10370;53.102;18.034;2023-04-24T02:32:27;12.40;99.90
20422;DHT22;10370;53.102;18.034;2023-04-24T02:37:52;12.40;99.90
20422;DHT22;10370;53.102;18.034;2023-04-24T02:43:16;12.40;99.90
20422;DHT22;10370;53.102;18.034;2023-04-24T02:48:40;12.50;99.90
20422;DHT22;10370;53.102;18.034;2023-04-24T02:54:05;12.50;99.90
20422;DHT22;10370;53.102;18.034;2023-04-24T02:59:28;12.50;99.90
20422;DHT22;10370;53.102;18.034;2023-04-24T03:04:53;12.40;99.90
20422;DHT22;10370;53.102;18.034;2023-04-24T03:10:22;12.40;99.90
20422;DHT22;10370;53.102;18.034;2023-04-24T03:15:45;12.40;99.90
20422;DHT22;10370;53.102;18.034;2023-04-24T03:21:09;12.50;99.90
20422;DHT22;10370;53.102;18.034;2023-04-24T03:26:35;12.50;99.90
20422;DHT22;10370;53.102;18.034;2023-04-24T03:32:00;12.50;99.90
20422;DHT22;10370;53.102;18.034;2023-04-24T03:37:25;12.40;99.90
20422;DHT22;10370;53.102;18.034;2023-04-24T03:42:51;12.40;99.90
20422;DHT22;10370;53.102;18.034;2023-04-24T03:48:14;12.40;99.90
20422;DHT22;10370;53.102;18.034;2023-04-24T03:53:40;12.30;99.90
20422;DHT22;10370;53.102;18.034;2023-04-24T03:59:08;12.40;99.90
20422;DHT22;10370;53.102;18.034;2023-04-24T04:04:32;12.30;99.90
20422;DHT22;10370;53.102;18.034;2023-04-24T04:09:56;12.30;99.90
20422;DHT22;10370;53.102;18.034;2023-04-24T04:15:18;12.40;99.90
20422;DHT22;10370;53.102;18.034;2023-04-24T04:20:42;12.40;99.90
20422;DHT22;10370;53.102;18.034;2023-04-24T04:26:08;12.40;99.90
20422;DHT22;10370;53.102;18.034;2023-04-24T04:31:35;12.50;99.90
20422;DHT22;10370;53.102;18.034;2023-04-24T04:37:01;12.50;99.90
20422;DHT22;10370;53.102;18.034;2023-04-24T04:42:25;12.50;99.90
20422;DHT22;10370;53.102;18.034;2023-04-24T04:47:49;12.60;99.90
20422;DHT22;10370;53.102;18.034;2023-04-24T04:53:17;12.60;99.90
20422;DHT22;10370;53.102;18.034;2023-04-24T04:58:38;12.70;99.90
20422;DHT22;10370;53.102;18.034;2023-04-24T05:04:03;13.00;99.90
20422;DHT22;10370;53.102;18.034;2023-04-24T05:09:24;13.60;99.90
20422;DHT22;10370;53.102;18.034;2023-04-24T05:14:50;13.50;99.90
20422;DHT22;10370;53.102;18.034;2023-04-24T05:20:15;13.60;99.90
20422;DHT22;10370;53.102;18.034;2023-04-24T05:25:41;13.70;99.90
20422;DHT22;10370;53.102;18.034;2023-04-24T05:31:06;16.10;99.90
20422;DHT22;10370;53.102;18.034;2023-04-24T05:36:30;18.30;99.90
20422;DHT22;10370;53.102;18.034;2023-04-24T05:41:53;17.50;99.90
20422;DHT22;10370;53.102;18.034;2023-04-24T05:47:18;17.80;99.90
20422;DHT22;10370;53.102;18.034;2023-04-24T05:52:44;16.80;99.90
20422;DHT22;10370;53.102;18.034;2023-04-24T05:58:08;15.60;99.90
20422;DHT22;10370;53.102;18.034;2023-04-24T06:03:34;15.40;99.90
20422;DHT22;10370;53.102;18.034;2023-04-24T06:08:56;15.30;99.90
20422;DHT22;10370;53.102;18.034;2023-04-24T06:14:17;15.20;99.90
20422;DHT22;10370;53.102;18.034;2023-04-24T06:19:40;15.20;99.90
20422;DHT22;10370;53.102;18.034;2023-04-24T06:25:11;15.50;99.90
20422;DHT22;10370;53.102;18.034;2023-04-24T06:30:37;15.60;99.90
20422;DHT22;10370;53.102;18.034;2023-04-24T06:36:02;15.40;99.90
20422;DHT22;10370;53.102;18.034;2023-04-24T06:41:27;15.40;99.90
20422;DHT22;10370;53.102;18.034;2023-04-24T06:46:53;15.40;99.90
20422;DHT22;10370;53.102;18.034;2023-04-24T06:52:16;15.40;99.90
20422;DHT22;10370;53.102;18.034;2023-04-24T06:57:39;15.70;99.90
20422;DHT22;10370;53.102;18.034;2023-04-24T07:03:02;16.10;99.90
20422;DHT22;10370;53.102;18.034;2023-04-24T07:08:24;16.40;99.90
20422;DHT22;10370;53.102;18.034;2023-04-24T07:13:48;16.40;99.90
20422;DHT22;10370;53.102;18.034;2023-04-24T07:19:10;16.30;99.90
20422;DHT22;10370;53.102;18.034;2023-04-24T07:24:33;16.20;99.90
20422;DHT22;10370;53.102;18.034;2023-04-24T07:29:58;16.20;99.90
20422;DHT22;10370;53.102;18.034;2023-04-24T07:35:22;16.50;99.90
20422;DHT22;10370;53.102;18.034;2023-04-24T07:40:43;16.70;99.90
20422;DHT22;10370;53.102;18.034;2023-04-24T07:53:10;16.90;99.90
20422;DHT22;10370;53.102;18.034;2023-04-24T07:58:35;17.10;99.90
20422;DHT22;10370;53.102;18.034;2023-04-24T08:03:59;17.20;99.90
20422;DHT22;10370;53.102;18.034;2023-04-24T08:09:24;17.30;99.90
20422;DHT22;10370;53.102;18.034;2023-04-24T08:14:49;17.70;99.90
20422;DHT22;10370;53.102;18.034;2023-04-24T08:20:11;18.00;99.90
20422;DHT22;10370;53.102;18.034;2023-04-24T08:25:37;17.90;99.90
20422;DHT22;10370;53.102;18.034;2023-04-24T08:30:58;17.80;99.90
20422;DHT22;10370;53.102;18.034;2023-04-24T08:36:19;17.70;99.90
20422;DHT22;10370;53.102;18.034;2023-04-24T08:41:43;17.50;99.90
20422;DHT22;10370;53.102;18.034;2023-04-24T08:47:08;17.50;99.90
20422;DHT22;10370;53.102;18.034;2023-04-24T08:52:32;17.50;99.90
20422;DHT22;10370;53.102;18.034;2023-04-24T08:57:54;17.50;99.90
20422;DHT22;10370;53.102;18.034;2023-04-24T09:03:17;17.50;99.90
20422;DHT22;10370;53.102;18.034;2023-04-24T09:08:41;17.30;99.90
20422;DHT22;10370;53.102;18.034;2023-04-24T09:14:05;17.30;99.90
20422;DHT22;10370;53.102;18.034;2023-04-24T09:19:29;17.30;99.90
20422;DHT22;10370;53.102;18.034;2023-04-24T09:25:05;17.30;99.90
20422;DHT22;10370;53.102;18.034;2023-04-24T09:30:27;17.40;99.90
20422;DHT22;10370;53.102;18.034;2023-04-24T09:35:56;17.60;99.90
20422;DHT22;10370;53.102;18.034;2023-04-24T09:41:21;17.90;99.90
20422;DHT22;10370;53.102;18.034;2023-04-24T09:46:44;18.20;99.90
20422;DHT22;10370;53.102;18.034;2023-04-24T09:52:09;18.40;99.90
20422;DHT22;10370;53.102;18.034;2023-04-24T09:57:34;18.60;99.90
20422;DHT22;10370;53.102;18.034;2023-04-24T10:03:03;18.70;99.90
20422;DHT22;10370;53.102;18.034;2023-04-24T10:08:26;18.80;99.90
20422;DHT22;10370;53.102;18.034;2023-04-24T10:13:47;19.00;99.90
20422;DHT22;10370;53.102;18.034;2023-04-24T10:19:10;19.00;99.90
20422;DHT22;10370;53.102;18.034;2023-04-24T10:24:34;19.20;99.90
20422;DHT22;10370;53.102;18.034;2023-04-24T10:30:01;19.60;99.90
20422;DHT22;10370;53.102;18.034;2023-04-24T10:35:40;20.00;99.90
20422;DHT22;10370;53.102;18.034;2023-04-24T10:41:08;20.20;99.90
20422;DHT22;10370;53.102;18.034;2023-04-24T10:46:38;20.20;99.90
20422;DHT22;10370;53.102;18.034;2023-04-24T10:52:04;20.20;99.90
20422;DHT22;10370;53.102;18.034;2023-04-24T10:57:30;20.20;99.90
20422;DHT22;10370;53.102;18.034;2023-04-24T11:02:53;20.20;99.90
20422;DHT22;10370;53.102;18.034;2023-04-24T11:08:31;20.10;99.90
20422;DHT22;10370;53.102;18.034;2023-04-24T11:19:22;20.00;99.90
20422;DHT22;10370;53.102;18.034;2023-04-24T11:30:08;20.00;99.90
20422;DHT22;10370;53.102;18.034;2023-04-24T11:35:35;19.80;99.90
20422;DHT22;10370;53.102;18.034;2023-04-24T11:41:01;20.00;99.90
20422;DHT22;10370;53.102;18.034;2023-04-24T11:46:31;20.30;99.90
20422;DHT22;10370;53.102;18.034;2023-04-24T11:51:59;20.30;99.90
20422;DHT22;10370;53.102;18.034;2023-04-24T11:57:25;20.00;99.90
20422;DHT22;10370;53.102;18.034;2023-04-24T12:02:51;19.90;99.90
20422;DHT22;10370;53.102;18.034;2023-04-24T12:08:27;19.60;99.90
20422;DHT22;10370;53.102;18.034;2023-04-24T12:13:51;19.40;99.90
20422;DHT22;10370;53.102;18.034;2023-04-24T12:19:22;19.70;99.90
20422;DHT22;10370;53.102;18.034;2023-04-24T12:25:03;20.00;99.90
20422;DHT22;10370;53.102;18.034;2023-04-24T12:30:30;20.10;99.90
20422;DHT22;10370;53.102;18.034;2023-04-24T12:35:54;20.10;99.90
20422;DHT22;10370;53.102;18.034;2023-04-24T12:41:20;20.10;99.90
20422;DHT22;10370;53.102;18.034;2023-04-24T12:46:45;20.20;99.90
20422;DHT22;10370;53.102;18.034;2023-04-24T12:52:10;20.00;99.90
20422;DHT22;10370;53.102;18.034;2023-04-24T12:57:34;19.90;99.90
20422;DHT22;10370;53.102;18.034;2023-04-24T13:02:58;19.90;99.90
20422;DHT22;10370;53.102;18.034;2023-04-24T13:08:23;19.70;99.90
20422;DHT22;10370;53.102;18.034;2023-04-24T13:13:48;19.50;99.90
20422;DHT22;10370;53.102;18.034;2023-04-24T13:19:17;19.50;99.90
20422;DHT22;10370;53.102;18.034;2023-04-24T13:24:42;19.50;99.90
20422;DHT22;10370;53.102;18.034;2023-04-24T13:30:07;19.60;99.90
20422;DHT22;10370;53.102;18.034;2023-04-24T13:35:35;19.40;99.90
20422;DHT22;10370;53.102;18.034;2023-04-24T13:41:00;19.20;99.90
20422;DHT22;10370;53.102;18.034;2023-04-24T13:46:25;18.90;99.90
20422;DHT22;10370;53.102;18.034;2023-04-24T13:51:48;18.70;99.90
20422;DHT22;10370;53.102;18.034;2023-04-24T13:57:11;18.60;99.90
20422;DHT22;10370;53.102;18.034;2023-04-24T14:02:33;18.50;99.90
20422;DHT22;10370;53.102;18.034;2023-04-24T14:07:59;18.60;99.90
20422;DHT22;10370;53.102;18.034;2023-04-24T14:13:25;18.60;99.90
20422;DHT22;10370;53.102;18.034;2023-04-24T14:18:48;18.70;99.90
20422;DHT22;10370;53.102;18.034;2023-04-24T14:24:11;18.70;99.90
20422;DHT22;10370;53.102;18.034;2023-04-24T14:29:36;18.60;99.90
20422;DHT22;10370;53.102;18.034;2023-04-24T14:34:59;18.80;99.90
20422;DHT22;10370;53.102;18.034;2023-04-24T14:40:26;18.90;99.90
20422;DHT22;10370;53.102;18.034;2023-04-24T14:46:14;18.90;99.90
20422;DHT22;10370;53.102;18.034;2023-04-24T14:51:39;18.90;99.90
20422;DHT22;10370;53.102;18.034;2023-04-24T14:57:06;19.00;99.90
20422;DHT22;10370;53.102;18.034;2023-04-24T15:02:32;19.10;99.90
20422;DHT22;10370;53.102;18.034;2023-04-24T15:07:57;19.10;99.90
20422;DHT22;10370;53.102;18.034;2023-04-24T15:13:22;19.00;99.90
20422;DHT22;10370;53.102;18.034;2023-04-24T15:18:47;18.90;99.90
20422;DHT22;10370;53.102;18.034;2023-04-24T15:24:14;19.00;99.90
20422;DHT22;10370;53.102;18.034;2023-04-24T15:29:41;19.00;99.90
20422;DHT22;10370;53.102;18.034;2023-04-24T15:35:06;18.80;99.90
20422;DHT22;10370;53.102;18.034;2023-04-24T15:40:34;18.70;99.90
20422;DHT22;10370;53.102;18.034;2023-04-24T15:46:00;18.50;99.90
20422;DHT22;10370;53.102;18.034;2023-04-24T15:51:25;18.40;99.90
20422;DHT22;10370;53.102;18.034;2023-04-24T15:56:51;18.30;99.90
20422;DHT22;10370;53.102;18.034;2023-04-24T16:02:14;18.20;99.90
20422;DHT22;10370;53.102;18.034;2023-04-24T16:07:42;18.10;99.90
20422;DHT22;10370;53.102;18.034;2023-04-24T16:13:05;18.10;99.90
20422;DHT22;10370;53.102;18.034;2023-04-24T16:18:28;17.90;99.90
20422;DHT22;10370;53.102;18.034;2023-04-24T16:23:53;17.90;99.90
20422;DHT22;10370;53.102;18.034;2023-04-24T16:29:20;18.00;99.90
20422;DHT22;10370;53.102;18.034;2023-04-24T16:34:45;18.00;99.90
20422;DHT22;10370;53.102;18.034;2023-04-24T16:40:13;17.90;99.90
20422;DHT22;10370;53.102;18.034;2023-04-24T16:45:40;17.80;99.90
20422;DHT22;10370;53.102;18.034;2023-04-24T16:51:07;17.60;99.90
20422;DHT22;10370;53.102;18.034;2023-04-24T16:56:32;17.00;99.90
20422;DHT22;10370;53.102;18.034;2023-04-24T17:01:58;16.70;99.90
20422;DHT22;10370;53.102;18.034;2023-04-24T17:07:21;16.30;99.90
20422;DHT22;10370;53.102;18.034;2023-04-24T17:12:45;15.90;99.90
20422;DHT22;10370;53.102;18.034;2023-04-24T17:18:10;15.30;99.90
20422;DHT22;10370;53.102;18.034;2023-04-24T17:23:37;15.00;99.90
20422;DHT22;10370;53.102;18.034;2023-04-24T17:29:00;14.90;99.90
20422;DHT22;10370;53.102;18.034;2023-04-24T17:34:25;14.60;99.90
20422;DHT22;10370;53.102;18.034;2023-04-24T17:39:51;14.60;99.90
20422;DHT22;10370;53.102;18.034;2023-04-24T17:45:16;14.40;99.90
20422;DHT22;10370;53.102;18.034;2023-04-24T17:50:44;14.30;99.90
20422;DHT22;10370;53.102;18.034;2023-04-24T17:56:07;14.10;99.90
20422;DHT22;10370;53.102;18.034;2023-04-24T18:01:31;14.10;99.90
20422;DHT22;10370;53.102;18.034;2023-04-24T18:06:56;14.00;99.90
20422;DHT22;10370;53.102;18.034;2023-04-24T18:12:23;13.80;99.90
20422;DHT22;10370;53.102;18.034;2023-04-24T18:17:47;13.70;99.90
20422;DHT22;10370;53.102;18.034;2023-04-24T18:23:11;13.70;99.90
20422;DHT22;10370;53.102;18.034;2023-04-24T18:28:32;13.70;99.90
20422;DHT22;10370;53.102;18.034;2023-04-24T18:33:55;13.60;99.90
20422;DHT22;10370;53.102;18.034;2023-04-24T18:39:16;13.60;99.90
20422;DHT22;10370;53.102;18.034;2023-04-24T18:44:37;13.70;99.90
20422;DHT22;10370;53.102;18.034;2023-04-24T18:50:05;13.70;99.90
20422;DHT22;10370;53.102;18.034;2023-04-24T18:55:32;13.80;99.90
20422;DHT22;10370;53.102;18.034;2023-04-24T19:00:59;13.70;99.90
20422;DHT22;10370;53.102;18.034;2023-04-24T19:06:23;13.60;99.90
20422;DHT22;10370;53.102;18.034;2023-04-24T19:11:50;13.40;99.90
20422;DHT22;10370;53.102;18.034;2023-04-24T19:17:14;13.40;99.90
20422;DHT22;10370;53.102;18.034;2023-04-24T19:22:46;13.30;99.90
20422;DHT22;10370;53.102;18.034;2023-04-24T19:28:07;13.30;99.90
20422;DHT22;10370;53.102;18.034;2023-04-24T19:33:29;13.20;99.90
20422;DHT22;10370;53.102;18.034;2023-04-24T19:38:52;13.20;99.90
20422;DHT22;10370;53.102;18.034;2023-04-24T19:44:18;13.20;99.90
20422;DHT22;10370;53.102;18.034;2023-04-24T19:49:43;13.10;99.90
20422;DHT22;10370;53.102;18.034;2023-04-24T19:55:10;13.10;99.90
20422;DHT22;10370;53.102;18.034;2023-04-24T20:00:35;13.10;99.90
20422;DHT22;10370;53.102;18.034;2023-04-24T20:06:01;13.00;99.90
20422;DHT22;10370;53.102;18.034;2023-04-24T20:11:22;13.00;99.90
20422;DHT22;10370;53.102;18.034;2023-04-24T20:16:46;13.00;99.90
20422;DHT22;10370;53.102;18.034;2023-04-24T20:22:08;13.00;99.90
20422;DHT22;10370;53.102;18.034;2023-04-24T20:27:35;13.00;99.90
20422;DHT22;10370;53.102;18.034;2023-04-24T20:33:00;13.00;99.90
20422;DHT22;10370;53.102;18.034;2023-04-24T20:38:21;12.90;99.90
20422;DHT22;10370;53.102;18.034;2023-04-24T20:43:44;12.90;99.90
20422;DHT22;10370;53.102;18.034;2023-04-24T20:49:06;12.90;99.90
20422;DHT22;10370;53.102;18.034;2023-04-24T20:54:29;12.90;99.90
20422;DHT22;10370;53.102;18.034;2023-04-24T20:59:54;12.80;99.90
20422;DHT22;10370;53.102;18.034;2023-04-24T21:05:23;12.80;99.90
20422;DHT22;10370;53.102;18.034;2023-04-24T21:10:49;12.70;99.90
20422;DHT22;10370;53.102;18.034;2023-04-24T21:16:15;12.70;99.90
20422;DHT22;10370;53.102;18.034;2023-04-24T21:21:36;12.80;99.90
20422;DHT22;10370;53.102;18.034;2023-04-24T21:27:02;12.70;99.90
20422;DHT22;10370;53.102;18.034;2023-04-24T21:32:23;12.70;99.90
20422;DHT22;10370;53.102;18.034;2023-04-24T21:37:44;12.70;99.90
20422;DHT22;10370;53.102;18.034;2023-04-24T21:43:09;12.60;99.90
20422;DHT22;10370;53.102;18.034;2023-04-24T21:48:33;12.60;99.90
20422;DHT22;10370;53.102;18.034;2023-04-24T21:54:01;12.50;99.90
20422;DHT22;10370;53.102;18.034;2023-04-24T21:59:28;12.50;99.90
20422;DHT22;10370;53.102;18.034;2023-04-24T22:04:53;12.50;99.90
20422;DHT22;10370;53.102;18.034;2023-04-24T22:10:16;12.40;99.90
20422;DHT22;10370;53.102;18.034;2023-04-24T22:15:39;12.40;99.90
20422;DHT22;10370;53.102;18.034;2023-04-24T22:21:04;12.30;99.90
20422;DHT22;10370;53.102;18.034;2023-04-24T22:26:30;12.30;99.90
20422;DHT22;10370;53.102;18.034;2023-04-24T22:31:55;12.30;99.90
20422;DHT22;10370;53.102;18.034;2023-04-24T22:37:18;12.10;99.90
20422;DHT22;10370;53.102;18.034;2023-04-24T22:42:43;12.10;99.90
20422;DHT22;10370;53.102;18.034;2023-04-24T22:48:08;12.00;99.90
20422;DHT22;10370;53.102;18.034;2023-04-24T22:53:33;12.00;99.90
20422;DHT22;10370;53.102;18.034;2023-04-24T22:59:00;12.00;99.90
20422;DHT22;10370;53.102;18.034;2023-04-24T23:04:24;11.90;99.90
20422;DHT22;10370;53.102;18.034;2023-04-24T23:09:48;11.90;99.90
20422;DHT22;10370;53.102;18.034;2023-04-24T23:15:15;11.90;99.90
20422;DHT22;10370;53.102;18.034;2023-04-24T23:20:40;11.80;99.90
20422;DHT22;10370;53.102;18.034;2023-04-24T23:26:05;11.70;99.90
20422;DHT22;10370;53.102;18.034;2023-04-24T23:31:30;11.80;99.90
20422;DHT22;10370;53.102;18.034;2023-04-24T23:36:56;11.70;99.90
20422;DHT22;10370;53.102;18.034;2023-04-24T23:42:19;11.60;99.90
20422;DHT22;10370;53.102;18.034;2023-04-24T23:47:42;11.60;99.90
20422;DHT22;10370;53.102;18.034;2023-04-24T23:53:05;11.60;99.90
20422;DHT22;10370;53.102;18.034;2023-04-24T23:58:30;11.70;99.90
